sensor_id;sensor_type;location;lat;lon;timestamp;pressure;altitude;pressure_sealevel;temperature;humidity
62031;BME280;62035;52.094;5.112;2022-08-07T00:02:16;102792.97;;;17.02;100.00
62031;BME280;62035;52.094;5.112;2022-08-07T00:04:44;102792.69;;;17.05;100.00
62031;BME280;62035;52.094;5.112;2022-08-07T00:07:11;102790.28;;;17.02;100.00
62031;BME280;62035;52.094;5.112;2022-08-07T00:09:39;102792.84;;;17.04;100.00
62031;BME280;62035;52.094;5.112;2022-08-07T00:12:07;102789.69;;;17.18;100.00
62031;BME280;62035;52.094;5.112;2022-08-07T00:14:35;102781.50;;;17.19;100.00
62031;BME280;62035;52.094;5.112;2022-08-07T00:17:04;102785.47;;;17.15;100.00
62031;BME280;62035;52.094;5.112;2022-08-07T00:19:32;102789.00;;;17.06;100.00
62031;BME280;62035;52.094;5.112;2022-08-07T00:22:00;102780.66;;;17.09;100.00
62031;BME280;62035;52.094;5.112;2022-08-07T00:24:27;102776.56;;;17.05;100.00
62031;BME280;62035;52.094;5.112;2022-08-07T00:26:55;102780.25;;;16.94;100.00
62031;BME280;62035;52.094;5.112;2022-08-07T00:29:22;102775.44;;;16.88;100.00
62031;BME280;62035;52.094;5.112;2022-08-07T00:31:52;102778.72;;;16.73;100.00
62031;BME280;62035;52.094;5.112;2022-08-07T00:34:21;102774.91;;;16.75;100.00
62031;BME280;62035;52.094;5.112;2022-08-07T00:36:49;102775.75;;;16.66;100.00
62031;BME280;62035;52.094;5.112;2022-08-07T00:39:16;102773.63;;;16.70;100.00
62031;BME280;62035;52.094;5.112;2022-08-07T00:41:49;102772.63;;;16.71;100.00
62031;BME280;62035;52.094;5.112;2022-08-07T00:44:18;102773.63;;;16.70;100.00
62031;BME280;62035;52.094;5.112;2022-08-07T00:46:45;102768.63;;;16.55;100.00
62031;BME280;62035;52.094;5.112;2022-08-07T00:49:13;102766.22;;;16.62;100.00
62031;BME280;62035;52.094;5.112;2022-08-07T00:51:42;102764.56;;;16.71;100.00
62031;BME280;62035;52.094;5.112;2022-08-07T00:54:10;102764.84;;;16.67;100.00
62031;BME280;62035;52.094;5.112;2022-08-07T00:56:40;102758.31;;;16.60;100.00
62031;BME280;62035;52.094;5.112;2022-08-07T00:59:07;102754.34;;;16.26;100.00
62031;BME280;62035;52.094;5.112;2022-08-07T01:01:35;102758.59;;;16.38;100.00
62031;BME280;62035;52.094;5.112;2022-08-07T01:04:04;102755.75;;;16.40;100.00
62031;BME280;62035;52.094;5.112;2022-08-07T01:06:33;102758.59;;;16.38;100.00
62031;BME280;62035;52.094;5.112;2022-08-07T01:09:02;102755.63;;;16.60;100.00
62031;BME280;62035;52.094;5.112;2022-08-07T01:11:31;102760.28;;;16.49;100.00
62031;BME280;62035;52.094;5.112;2022-08-07T01:13:59;102762.28;;;16.37;100.00
62031;BME280;62035;52.094;5.112;2022-08-07T01:16:27;102758.59;;;16.48;100.00
62031;BME280;62035;52.094;5.112;2022-08-07T01:18:56;102752.66;;;16.54;100.00
62031;BME280;62035;52.094;5.112;2022-08-07T01:21:26;102764.09;;;16.56;100.00
62031;BME280;62035;52.094;5.112;2022-08-07T01:23:55;102764.38;;;16.43;100.00
62031;BME280;62035;52.094;5.112;2022-08-07T01:26:25;102764.81;;;16.48;100.00
62031;BME280;62035;52.094;5.112;2022-08-07T01:28:53;102760.56;;;16.55;100.00
62031;BME280;62035;52.094;5.112;2022-08-07T01:31:21;102760.56;;;16.46;100.00
62031;BME280;62035;52.094;5.112;2022-08-07T01:33:56;102756.59;;;16.50;100.00
62031;BME280;62035;52.094;5.112;2022-08-07T01:36:27;102755.19;;;16.55;100.00
62031;BME280;62035;52.094;5.112;2022-08-07T01:38:55;102753.22;;;16.38;100.00
62031;BME280;62035;52.094;5.112;2022-08-07T01:41:24;102755.91;;;16.38;100.00
62031;BME280;62035;52.094;5.112;2022-08-07T01:43:52;102756.59;;;16.40;100.00
62031;BME280;62035;52.094;5.112;2022-08-07T01:46:20;102749.69;;;16.28;100.00
62031;BME280;62035;52.094;5.112;2022-08-07T01:48:48;102748.13;;;16.25;100.00
62031;BME280;62035;52.094;5.112;2022-08-07T01:51:18;102751.34;;;16.10;100.00
62031;BME280;62035;52.094;5.112;2022-08-07T01:53:49;102753.03;;;16.11;100.00
62031;BME280;62035;52.094;5.112;2022-08-07T01:56:24;102749.38;;;16.21;100.00
62031;BME280;62035;52.094;5.112;2022-08-07T01:58:58;102750.78;;;16.16;100.00
62031;BME280;62035;52.094;5.112;2022-08-07T02:01:38;102752.09;;;16.31;100.00
62031;BME280;62035;52.094;5.112;2022-08-07T02:04:14;102749.38;;;16.12;100.00
62031;BME280;62035;52.094;5.112;2022-08-07T02:06:52;102750.91;;;16.05;100.00
62031;BME280;62035;52.094;5.112;2022-08-07T02:09:24;102747.28;;;16.25;100.00
62031;BME280;62035;52.094;5.112;2022-08-07T02:11:55;102750.38;;;16.20;100.00
62031;BME280;62035;52.094;5.112;2022-08-07T02:14:43;102746.38;;;16.05;100.00
62031;BME280;62035;52.094;5.112;2022-08-07T02:17:13;102744.56;;;16.06;100.00
62031;BME280;62035;52.094;5.112;2022-08-07T02:19:44;102739.19;;;16.15;100.00
62031;BME280;62035;52.094;5.112;2022-08-07T02:22:16;102742.28;;;15.91;100.00
62031;BME280;62035;52.094;5.112;2022-08-07T02:24:48;102731.25;;;15.85;100.00
62031;BME280;62035;52.094;5.112;2022-08-07T02:27:21;102743.41;;;15.89;100.00
62031;BME280;62035;52.094;5.112;2022-08-07T02:29:51;102726.00;;;15.83;100.00
62031;BME280;62035;52.094;5.112;2022-08-07T02:32:21;102740.72;;;15.89;100.00
62031;BME280;62035;52.094;5.112;2022-08-07T02:34:50;102742.59;;;15.98;100.00
62031;BME280;62035;52.094;5.112;2022-08-07T02:37:21;102739.34;;;16.14;100.00
62031;BME280;62035;52.094;5.112;2022-08-07T02:39:53;102746.00;;;16.19;100.00
62031;BME280;62035;52.094;5.112;2022-08-07T02:42:23;102742.13;;;16.02;100.00
62031;BME280;62035;52.094;5.112;2022-08-07T02:44:52;102736.81;;;16.22;100.00
62031;BME280;62035;52.094;5.112;2022-08-07T02:47:21;102735.38;;;16.18;100.00
62031;BME280;62035;52.094;5.112;2022-08-07T02:49:50;102741.59;;;16.18;100.00
62031;BME280;62035;52.094;5.112;2022-08-07T02:52:22;102719.38;;;16.07;100.00
62031;BME280;62035;52.094;5.112;2022-08-07T02:54:59;102739.47;;;16.12;100.00
62031;BME280;62035;52.094;5.112;2022-08-07T02:57:30;102734.50;;;16.08;100.00
62031;BME280;62035;52.094;5.112;2022-08-07T03:00:03;102740.59;;;16.10;100.00
62031;BME280;62035;52.094;5.112;2022-08-07T03:02:32;102734.81;;;15.95;100.00
62031;BME280;62035;52.094;5.112;2022-08-07T03:05:03;102744.59;;;15.65;100.00
62031;BME280;62035;52.094;5.112;2022-08-07T03:07:32;102747.31;;;15.75;100.00
62031;BME280;62035;52.094;5.112;2022-08-07T03:10:02;102733.44;;;15.70;100.00
62031;BME280;62035;52.094;5.112;2022-08-07T03:12:31;102744.66;;;15.85;100.00
62031;BME280;62035;52.094;5.112;2022-08-07T03:15:00;102742.97;;;15.84;100.00
62031;BME280;62035;52.094;5.112;2022-08-07T03:17:29;102747.75;;;15.80;100.00
62031;BME280;62035;52.094;5.112;2022-08-07T03:19:59;102745.81;;;15.92;100.00
62031;BME280;62035;52.094;5.112;2022-08-07T03:22:28;102743.81;;;15.84;100.00
62031;BME280;62035;52.094;5.112;2022-08-07T03:24:57;102733.38;;;15.91;100.00
62031;BME280;62035;52.094;5.112;2022-08-07T03:27:27;102731.25;;;16.04;100.00
62031;BME280;62035;52.094;5.112;2022-08-07T03:29:55;102735.50;;;16.07;100.00
62031;BME280;62035;52.094;5.112;2022-08-07T03:32:26;102725.72;;;15.86;100.00
62031;BME280;62035;52.094;5.112;2022-08-07T03:35:02;102747.47;;;15.83;100.00
62031;BME280;62035;52.094;5.112;2022-08-07T03:37:33;102740.81;;;15.78;100.00
62031;BME280;62035;52.094;5.112;2022-08-07T03:40:04;102738.16;;;15.87;100.00
62031;BME280;62035;52.094;5.112;2022-08-07T03:42:35;102735.75;;;15.84;100.00
62031;BME280;62035;52.094;5.112;2022-08-07T03:45:04;102732.25;;;15.93;100.00
62031;BME280;62035;52.094;5.112;2022-08-07T03:47:33;102740.19;;;15.64;100.00
62031;BME280;62035;52.094;5.112;2022-08-07T03:50:02;102742.97;;;15.53;100.00
62031;BME280;62035;52.094;5.112;2022-08-07T03:52:30;102732.00;;;15.66;100.00
62031;BME280;62035;52.094;5.112;2022-08-07T03:55:00;102729.78;;;15.71;100.00
62031;BME280;62035;52.094;5.112;2022-08-07T03:57:29;102734.25;;;15.61;100.00
62031;BME280;62035;52.094;5.112;2022-08-07T03:59:59;102733.75;;;15.46;100.00
62031;BME280;62035;52.094;5.112;2022-08-07T04:02:27;102713.31;;;15.24;100.00
62031;BME280;62035;52.094;5.112;2022-08-07T04:04:55;102735.88;;;15.43;100.00
62031;BME280;62035;52.094;5.112;2022-08-07T04:07:23;102741.69;;;15.48;100.00
62031;BME280;62035;52.094;5.112;2022-08-07T04:09:51;102725.00;;;15.44;100.00
62031;BME280;62035;52.094;5.112;2022-08-07T04:12:19;102736.25;;;15.59;100.00
62031;BME280;62035;52.094;5.112;2022-08-07T04:14:48;102729.19;;;15.67;100.00
62031;BME280;62035;52.094;5.112;2022-08-07T04:17:18;102729.38;;;15.76;100.00
62031;BME280;62035;52.094;5.112;2022-08-07T04:19:47;102725.19;;;15.92;100.00
62031;BME280;62035;52.094;5.112;2022-08-07T04:22:16;102724.78;;;15.97;100.00
62031;BME280;62035;52.094;5.112;2022-08-07T04:24:45;102736.50;;;16.06;100.00
62031;BME280;62035;52.094;5.112;2022-08-07T04:27:14;102736.06;;;16.00;100.00
62031;BME280;62035;52.094;5.112;2022-08-07T04:29:42;102739.56;;;15.82;100.00
62031;BME280;62035;52.094;5.112;2022-08-07T04:32:10;102748.38;;;15.63;100.00
62031;BME280;62035;52.094;5.112;2022-08-07T04:34:40;102740.19;;;15.64;100.00
62031;BME280;62035;52.094;5.112;2022-08-07T04:37:08;102734.88;;;15.74;100.00
62031;BME280;62035;52.094;5.112;2022-08-07T04:39:36;102741.84;;;15.86;100.00
62031;BME280;62035;52.094;5.112;2022-08-07T04:42:04;102738.47;;;15.94;100.00
62031;BME280;62035;52.094;5.112;2022-08-07T04:44:32;102744.09;;;15.81;100.00
62031;BME280;62035;52.094;5.112;2022-08-07T04:47:07;102753.00;;;15.82;100.00
62031;BME280;62035;52.094;5.112;2022-08-07T04:49:43;102746.25;;;16.07;100.00
62031;BME280;62035;52.094;5.112;2022-08-07T04:52:20;102739.34;;;16.23;100.00
62031;BME280;62035;52.094;5.112;2022-08-07T04:55:00;102742.97;;;16.03;100.00
62031;BME280;62035;52.094;5.112;2022-08-07T04:57:41;102735.09;;;16.11;100.00
62031;BME280;62035;52.094;5.112;2022-08-07T05:00:19;102739.19;;;16.15;100.00
62031;BME280;62035;52.094;5.112;2022-08-07T05:02:54;102747.66;;;16.01;100.00
62031;BME280;62035;52.094;5.112;2022-08-07T05:05:32;102739.31;;;15.94;100.00
62031;BME280;62035;52.094;5.112;2022-08-07T05:08:17;102749.47;;;15.91;100.00
62031;BME280;62035;52.094;5.112;2022-08-07T05:10:54;102745.16;;;16.19;100.00
62031;BME280;62035;52.094;5.112;2022-08-07T05:13:28;102753.19;;;17.06;100.00
62031;BME280;62035;52.094;5.112;2022-08-07T05:16:04;102728.06;;;18.07;100.00
62031;BME280;62035;52.094;5.112;2022-08-07T05:18:39;102725.66;;;19.18;100.00
62031;BME280;62035;52.094;5.112;2022-08-07T05:21:12;102718.91;;;19.90;100.00
62031;BME280;62035;52.094;5.112;2022-08-07T05:23:46;102717.47;;;20.77;100.00
62031;BME280;62035;52.094;5.112;2022-08-07T05:26:18;102717.28;;;21.58;100.00
62031;BME280;62035;52.094;5.112;2022-08-07T05:28:50;102716.47;;;22.12;100.00
62031;BME280;62035;52.094;5.112;2022-08-07T05:31:22;102710.47;;;22.62;100.00
62031;BME280;62035;52.094;5.112;2022-08-07T05:33:52;102713.00;;;22.63;100.00
62031;BME280;62035;52.094;5.112;2022-08-07T05:36:23;102710.53;;;22.54;100.00
62031;BME280;62035;52.094;5.112;2022-08-07T05:38:52;102707.22;;;21.67;100.00
62031;BME280;62035;52.094;5.112;2022-08-07T05:41:22;102707.66;;;20.76;100.00
62031;BME280;62035;52.094;5.112;2022-08-07T05:43:52;102705.09;;;20.18;100.00
62031;BME280;62035;52.094;5.112;2022-08-07T05:46:22;102712.13;;;19.44;100.00
62031;BME280;62035;52.094;5.112;2022-08-07T05:48:51;102716.03;;;19.16;100.00
62031;BME280;62035;52.094;5.112;2022-08-07T05:51:20;102725.28;;;18.87;100.00
62031;BME280;62035;52.094;5.112;2022-08-07T05:53:50;102727.03;;;18.71;100.00
62031;BME280;62035;52.094;5.112;2022-08-07T05:56:18;102728.53;;;18.55;100.00
62031;BME280;62035;52.094;5.112;2022-08-07T05:58:47;102737.03;;;19.04;100.00
62031;BME280;62035;52.094;5.112;2022-08-07T06:01:16;102721.63;;;20.07;100.00
62031;BME280;62035;52.094;5.112;2022-08-07T06:03:50;102728.28;;;20.69;100.00
62031;BME280;62035;52.094;5.112;2022-08-07T06:06:20;102726.97;;;21.45;100.00
62031;BME280;62035;52.094;5.112;2022-08-07T06:08:51;102720.59;;;22.31;100.00
62031;BME280;62035;52.094;5.112;2022-08-07T06:11:21;102712.69;;;22.81;100.00
62031;BME280;62035;52.094;5.112;2022-08-07T06:13:49;102714.31;;;23.05;100.00
62031;BME280;62035;52.094;5.112;2022-08-07T06:16:19;102714.88;;;23.45;100.00
62031;BME280;62035;52.094;5.112;2022-08-07T06:18:48;102716.97;;;23.93;100.00
62031;BME280;62035;52.094;5.112;2022-08-07T06:21:16;102718.00;;;24.14;99.04
62031;BME280;62035;52.094;5.112;2022-08-07T06:23:46;102716.84;;;24.23;98.23
62031;BME280;62035;52.094;5.112;2022-08-07T06:26:14;102720.53;;;24.30;98.02
62031;BME280;62035;52.094;5.112;2022-08-07T06:28:51;102720.78;;;24.35;96.28
62031;BME280;62035;52.094;5.112;2022-08-07T06:31:21;102726.34;;;24.27;95.83
62031;BME280;62035;52.094;5.112;2022-08-07T06:33:50;102720.53;;;24.15;96.64
62031;BME280;62035;52.094;5.112;2022-08-07T06:36:17;102723.25;;;24.30;95.16
62031;BME280;62035;52.094;5.112;2022-08-07T06:38:46;102729.66;;;24.08;95.95
62031;BME280;62035;52.094;5.112;2022-08-07T06:41:17;102723.66;;;23.76;97.92
62031;BME280;62035;52.094;5.112;2022-08-07T06:43:49;102722.03;;;23.16;100.00
62031;BME280;62035;52.094;5.112;2022-08-07T06:46:20;102725.41;;;22.81;100.00
62031;BME280;62035;52.094;5.112;2022-08-07T06:48:48;102726.16;;;22.06;100.00
62031;BME280;62035;52.094;5.112;2022-08-07T06:51:20;102729.13;;;22.19;100.00
62031;BME280;62035;52.094;5.112;2022-08-07T06:53:58;102735.53;;;22.26;100.00
62031;BME280;62035;52.094;5.112;2022-08-07T06:56:29;102730.53;;;21.76;100.00
62031;BME280;62035;52.094;5.112;2022-08-07T06:59:12;102725.81;;;21.31;100.00
62031;BME280;62035;52.094;5.112;2022-08-07T07:01:42;102716.16;;;21.37;100.00
62031;BME280;62035;52.094;5.112;2022-08-07T07:04:12;102715.75;;;21.56;100.00
62031;BME280;62035;52.094;5.112;2022-08-07T07:06:39;102719.38;;;21.40;100.00
62031;BME280;62035;52.094;5.112;2022-08-07T07:09:23;102722.97;;;21.24;100.00
62031;BME280;62035;52.094;5.112;2022-08-07T07:11:59;102719.63;;;21.06;100.00
62031;BME280;62035;52.094;5.112;2022-08-07T07:14:40;102720.94;;;21.18;100.00
62031;BME280;62035;52.094;5.112;2022-08-07T07:17:19;102731.47;;;20.97;100.00
62031;BME280;62035;52.094;5.112;2022-08-07T07:19:55;102729.59;;;21.06;100.00
62031;BME280;62035;52.094;5.112;2022-08-07T07:22:26;102737.88;;;21.04;100.00
62031;BME280;62035;52.094;5.112;2022-08-07T07:24:56;102741.94;;;21.00;100.00
62031;BME280;62035;52.094;5.112;2022-08-07T07:27:29;102746.34;;;20.93;100.00
62031;BME280;62035;52.094;5.112;2022-08-07T07:30:03;102739.59;;;20.89;100.00
62031;BME280;62035;52.094;5.112;2022-08-07T07:32:35;102742.13;;;21.07;100.00
62031;BME280;62035;52.094;5.112;2022-08-07T07:35:07;102739.06;;;21.18;100.00
62031;BME280;62035;52.094;5.112;2022-08-07T07:37:38;102734.81;;;21.23;100.00
62031;BME280;62035;52.094;5.112;2022-08-07T07:40:14;102729.41;;;21.15;100.00
62031;BME280;62035;52.094;5.112;2022-08-07T07:42:45;102733.59;;;21.34;100.00
62031;BME280;62035;52.094;5.112;2022-08-07T07:45:17;102736.13;;;21.36;100.00
62031;BME280;62035;52.094;5.112;2022-08-07T07:47:48;102724.78;;;21.40;100.00
62031;BME280;62035;52.094;5.112;2022-08-07T07:50:19;102731.13;;;20.92;100.00
62031;BME280;62035;52.094;5.112;2022-08-07T07:52:49;102724.34;;;21.12;100.00
62031;BME280;62035;52.094;5.112;2022-08-07T07:55:20;102723.28;;;21.29;100.00
62031;BME280;62035;52.094;5.112;2022-08-07T07:57:49;102711.66;;;21.13;100.00
62031;BME280;62035;52.094;5.112;2022-08-07T08:00:18;102715.78;;;21.48;100.00
62031;BME280;62035;52.094;5.112;2022-08-07T08:02:48;102715.75;;;21.56;100.00
62031;BME280;62035;52.094;5.112;2022-08-07T08:05:20;102714.41;;;21.52;100.00
62031;BME280;62035;52.094;5.112;2022-08-07T08:07:49;102712.69;;;21.04;100.00
62031;BME280;62035;52.094;5.112;2022-08-07T08:10:19;102715.88;;;21.15;100.00
62031;BME280;62035;52.094;5.112;2022-08-07T08:12:49;102722.09;;;21.32;100.00
62031;BME280;62035;52.094;5.112;2022-08-07T08:15:18;102714.41;;;21.52;100.00
62031;BME280;62035;52.094;5.112;2022-08-07T08:17:47;102710.72;;;21.76;100.00
62031;BME280;62035;52.094;5.112;2022-08-07T08:20:15;102712.38;;;21.54;100.00
62031;BME280;62035;52.094;5.112;2022-08-07T08:22:46;102708.97;;;21.91;100.00
62031;BME280;62035;52.094;5.112;2022-08-07T08:25:35;102707.09;;;21.91;100.00
62031;BME280;62035;52.094;5.112;2022-08-07T08:28:24;102704.75;;;21.88;100.00
62031;BME280;62035;52.094;5.112;2022-08-07T08:30:57;102697.88;;;22.01;100.00
62031;BME280;62035;52.094;5.112;2022-08-07T08:33:28;102690.63;;;22.24;100.00
62031;BME280;62035;52.094;5.112;2022-08-07T08:35:59;102683.22;;;22.18;100.00
62031;BME280;62035;52.094;5.112;2022-08-07T08:38:33;102688.56;;;22.26;100.00
62031;BME280;62035;52.094;5.112;2022-08-07T08:41:12;102690.94;;;22.29;100.00
62031;BME280;62035;52.094;5.112;2022-08-07T08:43:49;102689.41;;;22.04;100.00
62031;BME280;62035;52.094;5.112;2022-08-07T08:46:32;102682.47;;;22.24;100.00
62031;BME280;62035;52.094;5.112;2022-08-07T08:49:15;102694.88;;;21.95;100.00
62031;BME280;62035;52.094;5.112;2022-08-07T08:51:54;102686.03;;;22.02;100.00
62031;BME280;62035;52.094;5.112;2022-08-07T08:54:31;102678.72;;;22.48;100.00
62031;BME280;62035;52.094;5.112;2022-08-07T08:57:07;102682.34;;;22.40;100.00
62031;BME280;62035;52.094;5.112;2022-08-07T08:59:46;102679.34;;;22.35;100.00
62031;BME280;62035;52.094;5.112;2022-08-07T09:02:22;102677.66;;;22.72;97.51
62031;BME280;62035;52.094;5.112;2022-08-07T09:05:05;102668.34;;;22.51;98.89
62031;BME280;62035;52.094;5.112;2022-08-07T09:08:02;102684.09;;;22.71;98.26
62031;BME280;62035;52.094;5.112;2022-08-07T09:10:43;102688.69;;;22.70;100.00
62031;BME280;62035;52.094;5.112;2022-08-07T09:13:30;102682.53;;;22.76;95.11
62031;BME280;62035;52.094;5.112;2022-08-07T09:16:06;102686.59;;;22.57;96.11
62031;BME280;62035;52.094;5.112;2022-08-07T09:18:55;102685.38;;;22.60;92.24
62031;BME280;62035;52.094;5.112;2022-08-07T09:21:37;102682.94;;;23.03;92.43
62031;BME280;62035;52.094;5.112;2022-08-07T09:24:18;102678.47;;;23.10;91.01
62031;BME280;62035;52.094;5.112;2022-08-07T09:27:10;102676.38;;;23.56;89.64
62031;BME280;62035;52.094;5.112;2022-08-07T09:30:04;102679.69;;;23.73;85.43
62031;BME280;62035;52.094;5.112;2022-08-07T09:32:59;102676.66;;;23.32;87.86
62031;BME280;62035;52.094;5.112;2022-08-07T09:35:41;102688.44;;;22.80;90.70
62031;BME280;62035;52.094;5.112;2022-08-07T09:38:21;102686.84;;;22.85;92.17
62031;BME280;62035;52.094;5.112;2022-08-07T09:41:01;102680.00;;;22.75;90.03
62031;BME280;62035;52.094;5.112;2022-08-07T09:46:41;102681.09;;;22.28;90.62
62031;BME280;62035;52.094;5.112;2022-08-07T09:49:32;102678.81;;;22.54;89.16
62031;BME280;62035;52.094;5.112;2022-08-07T09:52:19;102681.56;;;22.69;90.46
62031;BME280;62035;52.094;5.112;2022-08-07T09:54:55;102676.03;;;23.00;87.36
62031;BME280;62035;52.094;5.112;2022-08-07T10:00:45;102657.63;;;23.32;83.13
62031;BME280;62035;52.094;5.112;2022-08-07T10:03:54;102664.66;;;23.26;84.81
62031;BME280;62035;52.094;5.112;2022-08-07T10:06:51;102656.59;;;23.33;84.08
62031;BME280;62035;52.094;5.112;2022-08-07T10:13:09;102654.34;;;23.51;86.86
62031;BME280;62035;52.094;5.112;2022-08-07T10:15:58;102651.81;;;23.49;83.13
62031;BME280;62035;52.094;5.112;2022-08-07T10:18:57;102632.31;;;23.46;82.73
62031;BME280;62035;52.094;5.112;2022-08-07T10:21:42;102641.63;;;23.73;81.30
62031;BME280;62035;52.094;5.112;2022-08-07T10:24:29;102641.97;;;23.84;82.53
62031;BME280;62035;52.094;5.112;2022-08-07T10:30:14;102636.03;;;23.96;81.22
62031;BME280;62035;52.094;5.112;2022-08-07T10:32:55;102624.75;;;23.77;80.68
62031;BME280;62035;52.094;5.112;2022-08-07T10:35:49;102634.16;;;23.96;82.20
62031;BME280;62035;52.094;5.112;2022-08-07T10:38:47;102624.63;;;24.28;82.27
62031;BME280;62035;52.094;5.112;2022-08-07T10:41:26;102626.84;;;23.97;80.18
62031;BME280;62035;52.094;5.112;2022-08-07T10:44:05;102629.13;;;24.21;81.00
62031;BME280;62035;52.094;5.112;2022-08-07T10:46:41;102616.50;;;24.13;80.13
62031;BME280;62035;52.094;5.112;2022-08-07T10:49:22;102596.47;;;23.93;79.20
62031;BME280;62035;52.094;5.112;2022-08-07T10:52:07;102611.22;;;24.05;77.97
62031;BME280;62035;52.094;5.112;2022-08-07T10:54:41;102617.00;;;24.45;72.74
62031;BME280;62035;52.094;5.112;2022-08-07T10:57:18;102616.75;;;24.68;66.86
62031;BME280;62035;52.094;5.112;2022-08-07T11:00:03;102615.91;;;24.39;67.68
62031;BME280;62035;52.094;5.112;2022-08-07T11:02:38;102588.91;;;24.16;67.49
62031;BME280;62035;52.094;5.112;2022-08-07T11:05:18;102611.13;;;24.69;68.22
62031;BME280;62035;52.094;5.112;2022-08-07T11:08:03;102598.06;;;24.58;71.26
62031;BME280;62035;52.094;5.112;2022-08-07T11:10:41;102613.34;;;24.93;67.53
62031;BME280;62035;52.094;5.112;2022-08-07T11:13:18;102603.44;;;24.86;63.59
62031;BME280;62035;52.094;5.112;2022-08-07T11:15:53;102596.63;;;24.62;66.75
62031;BME280;62035;52.094;5.112;2022-08-07T11:18:31;102580.63;;;24.87;63.75
62031;BME280;62035;52.094;5.112;2022-08-07T11:21:06;102594.53;;;24.99;64.73
62031;BME280;62035;52.094;5.112;2022-08-07T11:23:48;102586.06;;;24.87;58.25
62031;BME280;62035;52.094;5.112;2022-08-07T11:26:27;102595.69;;;24.83;54.06
62031;BME280;62035;52.094;5.112;2022-08-07T11:29:04;102592.16;;;25.37;51.29
62031;BME280;62035;52.094;5.112;2022-08-07T11:31:40;102565.66;;;25.04;52.81
62031;BME280;62035;52.094;5.112;2022-08-07T11:34:17;102587.19;;;25.47;53.38
62031;BME280;62035;52.094;5.112;2022-08-07T11:36:58;102578.53;;;25.37;45.23
62031;BME280;62035;52.094;5.112;2022-08-07T11:39:57;102576.78;;;25.90;47.01
62031;BME280;62035;52.094;5.112;2022-08-07T11:42:51;102571.34;;;26.36;49.14
62031;BME280;62035;52.094;5.112;2022-08-07T11:45:29;102566.94;;;26.35;44.51
62031;BME280;62035;52.094;5.112;2022-08-07T11:48:17;102566.25;;;26.53;45.14
62031;BME280;62035;52.094;5.112;2022-08-07T11:51:12;102562.03;;;26.64;45.51
62031;BME280;62035;52.094;5.112;2022-08-07T11:53:59;102568.78;;;26.54;42.40
62031;BME280;62035;52.094;5.112;2022-08-07T11:56:58;102565.03;;;26.29;41.66
62031;BME280;62035;52.094;5.112;2022-08-07T11:59:42;102559.56;;;26.16;37.68
62031;BME280;62035;52.094;5.112;2022-08-07T12:02:35;102551.88;;;26.97;37.72
62031;BME280;62035;52.094;5.112;2022-08-07T12:05:25;102556.78;;;26.69;35.87
62031;BME280;62035;52.094;5.112;2022-08-07T12:08:06;102543.06;;;26.82;33.63
62031;BME280;62035;52.094;5.112;2022-08-07T12:10:39;102544.72;;;26.83;33.09
62031;BME280;62035;52.094;5.112;2022-08-07T12:13:17;102543.44;;;27.05;32.31
62031;BME280;62035;52.094;5.112;2022-08-07T12:15:52;102547.84;;;27.06;30.67
62031;BME280;62035;52.094;5.112;2022-08-07T12:18:28;102555.63;;;27.03;31.43
62031;BME280;62035;52.094;5.112;2022-08-07T12:21:19;102544.78;;;26.76;29.89
62031;BME280;62035;52.094;5.112;2022-08-07T12:23:58;102551.16;;;27.15;30.65
62031;BME280;62035;52.094;5.112;2022-08-07T12:26:36;102547.59;;;27.14;32.08
62031;BME280;62035;52.094;5.112;2022-08-07T12:29:16;102550.69;;;27.56;35.27
62031;BME280;62035;52.094;5.112;2022-08-07T12:31:55;102549.09;;;28.48;32.96
62031;BME280;62035;52.094;5.112;2022-08-07T12:34:32;102553.19;;;28.57;31.83
62031;BME280;62035;52.094;5.112;2022-08-07T12:37:03;102551.09;;;29.26;32.16
62031;BME280;62035;52.094;5.112;2022-08-07T12:39:34;102549.72;;;28.86;33.19
62031;BME280;62035;52.094;5.112;2022-08-07T12:42:07;102545.97;;;28.81;34.74
62031;BME280;62035;52.094;5.112;2022-08-07T12:44:39;102547.97;;;28.37;37.39
62031;BME280;62035;52.094;5.112;2022-08-07T12:47:20;102537.91;;;27.81;39.72
62031;BME280;62035;52.094;5.112;2022-08-07T12:50:00;102530.81;;;27.99;41.92
62031;BME280;62035;52.094;5.112;2022-08-07T12:52:43;102538.06;;;28.54;40.92
62031;BME280;62035;52.094;5.112;2022-08-07T12:55:20;102531.44;;;28.99;39.95
62031;BME280;62035;52.094;5.112;2022-08-07T12:57:52;102532.69;;;29.98;36.46
62031;BME280;62035;52.094;5.112;2022-08-07T13:00:32;102530.72;;;29.51;38.37
62031;BME280;62035;52.094;5.112;2022-08-07T13:03:18;102524.38;;;29.51;39.10
62031;BME280;62035;52.094;5.112;2022-08-07T13:06:07;102523.59;;;29.85;39.41
62031;BME280;62035;52.094;5.112;2022-08-07T13:08:53;102526.47;;;29.37;39.36
62031;BME280;62035;52.094;5.112;2022-08-07T13:11:38;102519.34;;;30.13;37.31
62031;BME280;62035;52.094;5.112;2022-08-07T13:14:22;102519.09;;;30.14;37.52
62031;BME280;62035;52.094;5.112;2022-08-07T13:17:03;102512.53;;;29.92;36.74
62031;BME280;62035;52.094;5.112;2022-08-07T13:19:42;102508.09;;;30.38;36.74
62031;BME280;62035;52.094;5.112;2022-08-07T13:22:20;102501.47;;;30.74;36.07
62031;BME280;62035;52.094;5.112;2022-08-07T13:25:00;102510.69;;;29.74;35.50
62031;BME280;62035;52.094;5.112;2022-08-07T13:27:35;102508.09;;;29.91;36.09
62031;BME280;62035;52.094;5.112;2022-08-07T13:30:10;102505.78;;;29.23;37.25
62031;BME280;62035;52.094;5.112;2022-08-07T13:32:52;102506.84;;;28.92;38.67
62031;BME280;62035;52.094;5.112;2022-08-07T13:35:28;102499.53;;;29.04;38.39